createdAt,value
2022-09-15T13:54:33.182Z,941.97
2022-09-15T13:54:43.150Z,941.97
2022-09-15T13:54:53.152Z,941.97
2022-09-15T13:55:03.147Z,941.97
2022-09-15T13:55:13.149Z,941.97
2022-09-15T13:55:23.158Z,941.97
2022-09-15T13:55:33.152Z,941.97
2022-09-15T13:55:43.152Z,941.97
2022-09-15T13:55:53.153Z,941.97
2022-09-15T13:56:03.152Z,941.96
2022-09-15T13:56:13.155Z,941.95
2022-09-15T13:56:23.159Z,941.96
2022-09-15T13:56:33.157Z,941.96
2022-09-15T13:56:43.159Z,941.95
2022-09-15T13:56:53.168Z,941.95
2022-09-15T13:57:03.160Z,941.95
2022-09-15T13:57:13.223Z,941.94
2022-09-15T13:58:54.128Z,941.94
2022-09-15T13:58:58.133Z,941.90
2022-09-15T13:59:04.564Z,941.90
2022-09-15T13:59:10.075Z,941.90
2022-09-15T13:59:16.266Z,941.90
2022-09-15T13:59:24.768Z,941.89
2022-09-15T13:59:33.195Z,941.88
2022-09-15T13:59:43.176Z,941.87
2022-09-15T13:59:53.173Z,941.87
2022-09-15T14:00:03.171Z,941.86
2022-09-15T14:00:19.300Z,941.85
2022-09-15T14:00:24.173Z,941.84
2022-09-15T14:00:33.191Z,941.83
2022-09-15T14:00:43.176Z,941.83
2022-09-15T14:00:53.176Z,941.82
2022-09-15T14:01:03.229Z,941.83
2022-09-15T14:01:13.221Z,941.83
2022-09-15T14:01:23.231Z,941.84
2022-09-15T14:01:33.274Z,941.84
2022-09-15T14:01:43.258Z,941.83
2022-09-15T14:01:53.314Z,941.84
2022-09-15T14:02:03.350Z,941.84
2022-09-15T14:02:13.249Z,941.84
2022-09-15T14:02:23.267Z,941.85
2022-09-15T14:02:33.262Z,941.84
2022-09-15T14:02:43.217Z,941.84
2022-09-15T14:02:53.184Z,941.85
2022-09-15T14:03:03.182Z,941.85
2022-09-15T14:03:13.182Z,941.85
2022-09-15T14:03:23.185Z,941.85
2022-09-15T14:03:33.191Z,941.85
2022-09-15T14:03:43.238Z,941.85
2022-09-15T14:03:53.352Z,941.85
2022-09-15T14:04:03.190Z,941.85
2022-09-15T14:04:13.192Z,941.85
2022-09-15T14:04:23.189Z,941.85
2022-09-15T14:04:33.221Z,941.85
2022-09-15T14:04:43.191Z,941.85
2022-09-15T14:04:53.192Z,941.86
2022-09-15T14:05:03.193Z,941.85
2022-09-15T14:05:13.202Z,941.85
2022-09-15T14:05:23.195Z,941.85
2022-09-15T14:05:33.239Z,941.85
2022-09-15T14:05:43.197Z,941.85
2022-09-15T14:05:53.205Z,941.86
2022-09-15T14:06:03.201Z,941.86
2022-09-15T14:06:13.199Z,941.85
2022-09-15T14:06:23.203Z,941.86
2022-09-15T14:06:33.233Z,941.86
2022-09-15T14:06:43.204Z,941.87
2022-09-15T14:06:57.037Z,941.86
2022-09-15T14:07:04.242Z,941.85
2022-09-15T14:07:23.208Z,941.86
2022-09-15T14:07:33.221Z,941.86
2022-09-15T14:07:43.208Z,941.86
2022-09-15T14:07:53.281Z,941.87
2022-09-15T14:08:03.212Z,941.87
2022-09-15T14:08:13.211Z,941.87
2022-09-15T14:08:23.213Z,941.87
2022-09-15T14:08:33.235Z,941.87
2022-09-15T14:08:43.264Z,941.87
2022-09-15T14:08:53.402Z,941.87
2022-09-15T14:09:03.218Z,941.87
2022-09-15T14:09:13.579Z,941.87
2022-09-15T14:09:23.219Z,941.87
2022-09-15T14:09:33.225Z,941.87
2022-09-15T14:09:43.221Z,941.88
2022-09-15T14:09:53.222Z,941.88
2022-09-15T14:10:03.221Z,941.88
2022-09-15T14:10:13.227Z,941.87
2022-09-15T14:10:23.222Z,941.88
2022-09-15T14:10:33.241Z,941.88
2022-09-15T14:10:43.224Z,941.88
2022-09-15T14:10:53.225Z,941.88
2022-09-15T14:11:03.230Z,941.88
2022-09-15T14:11:13.243Z,941.88
2022-09-15T14:11:23.228Z,941.87
2022-09-15T14:11:33.271Z,941.87
2022-09-15T14:11:43.231Z,941.87
2022-09-15T14:11:53.231Z,941.86
2022-09-15T14:12:03.234Z,941.87
2022-09-15T14:12:13.234Z,941.87
2022-09-15T14:12:23.235Z,941.86
2022-09-15T14:12:33.245Z,941.85
2022-09-15T14:12:43.239Z,941.86
2022-09-15T14:12:53.239Z,941.85
2022-09-15T14:13:03.239Z,941.85
2022-09-15T14:13:13.238Z,941.85
2022-09-15T14:13:23.238Z,941.85
2022-09-15T14:13:33.247Z,941.85
2022-09-15T14:13:43.239Z,941.85
2022-09-15T14:13:53.265Z,941.85
2022-09-15T14:14:03.243Z,941.85
2022-09-15T14:14:13.245Z,941.85
2022-09-15T14:14:23.243Z,941.85
2022-09-15T14:14:33.249Z,941.85
2022-09-15T14:14:43.251Z,941.84
2022-09-15T14:14:53.244Z,941.84
2022-09-15T14:15:03.243Z,941.84
2022-09-15T14:15:13.247Z,941.85
2022-09-15T14:15:23.246Z,941.85
2022-09-15T14:15:33.249Z,941.84
2022-09-15T14:15:43.246Z,941.84
2022-09-15T14:15:53.248Z,941.84
2022-09-15T14:16:03.453Z,941.83
2022-09-15T14:16:13.321Z,941.83
2022-09-15T14:16:23.274Z,941.84
2022-09-15T14:16:33.296Z,941.83
2022-09-15T14:16:43.315Z,941.84
2022-09-15T14:16:53.324Z,941.83
2022-09-15T14:17:03.350Z,941.84
2022-09-15T14:17:13.255Z,941.84
2022-09-15T14:17:23.255Z,941.84
2022-09-15T14:17:33.259Z,941.84
2022-09-15T14:17:43.257Z,941.85
2022-09-15T14:17:53.258Z,941.85
2022-09-15T14:18:03.264Z,941.86
2022-09-15T14:18:13.258Z,941.86
2022-09-15T14:18:23.261Z,941.87
2022-09-15T14:18:33.264Z,941.87
2022-09-15T14:18:43.265Z,941.87
2022-09-15T14:18:53.264Z,941.87
2022-09-15T14:19:03.266Z,941.88
2022-09-15T14:19:13.267Z,941.88
2022-09-15T14:19:23.265Z,941.88
2022-09-15T14:19:33.272Z,941.87
2022-09-15T14:19:43.264Z,941.87
2022-09-15T14:19:53.269Z,941.87
2022-09-15T14:20:03.271Z,941.87
2022-09-15T14:20:13.272Z,941.86
2022-09-15T14:20:23.268Z,941.87
2022-09-15T14:20:33.279Z,941.87
2022-09-15T14:20:43.271Z,941.87
2022-09-15T14:20:53.272Z,941.87
2022-09-15T14:21:03.273Z,941.87
2022-09-15T14:21:13.276Z,941.87
2022-09-15T14:21:23.276Z,941.87
2022-09-15T14:21:33.277Z,941.87
2022-09-15T14:21:43.288Z,941.87
